Αρχική σελίδα
METAR-TAF:

METAR-TAF

Αεροδρόμια :

Φερνάντο ντε Νορόνια, Περναμπούκο, Βραζιλία

γεωγραφικό πλάτος: 03-51S, γεωγραφικό μήκος: 032-25W, υψόμετρο: 56 μ

Παρών καιρός

Η αναφορά έγινε 1 ώρα και 3 λεπτά πριν, στις 19:00 UTC
Άνεμος 12 kt από Α/NA, μεταβλητός μεταξύ Α και Ν/NA
Θερμοκρασία 28°C
Υγρασία 74%
Πίεση 1012 hPa
Ορατότητα 10 χλμ και άνω
Λίγα νέφη σε ύψος 2200 πόδια

METAR: SBFN 201900Z AUTO 12012KT 090V150 9999 FEW022 28/23 Q1012

Χρόνος: 18:03 (20:03 UTC)

Πρόγνωση Καιρού

Η αναφορά έγινε 4 ώρες και 53 λεπτά πριν, στις 15:10 UTC
Η πρόγνωση ισχύει από τις 20 στις 18 UTC έως τις 21 στις 06 UTC
Άνεμος 10 kt από Α/NA
Ορατότητα 10 χλμ και άνω
Διάσπαρτα νέφη σε ύψος 1700 πόδια

TAF: SBFN 201510Z 2018/2106 12010KT 9999 SCT017 TX28/2018Z TN26/2105Z RMK PHD

Μετεωρολογικές αναφορές και προγνώσεις για περισσότερα από 4000 αεροδρόμια (δελτία METAR και TAF).

Οι διαθέσιμοι σταθμοί απεικονίζονται στο χάρτη με κίτρινες και κόκκινες κουκκίδες.

Μετακινήστε το ποντίκι πάνω από τις κουκκίδες για να δείτε το όνομα του σταθμού.

Στη συνέχεια, κάντε κλικ για να δείτε τις μετεωρολογικές αναφορές και τις προγνώσεις καιρού.

Για να αλλάξετε το χάρτη: κάντε κλικ στα πράσινα κουμπιά με τον μαύρο σταυρό για να ζουμάρετε, στο πράσινο κουμπί με την παύλα για να αφαιρέσετε το ζουμ ή στα πράσινα βέλη για να αντιπαραβάλλετε χάρτες.


METAR-TAF: